createdAt,value
2019-03-05T00:01:14.212Z,97300.99
2019-03-05T00:03:43.459Z,97299.45
2019-03-05T00:06:12.825Z,97303.45
2019-03-05T00:08:42.053Z,97297.89
2019-03-05T00:11:11.230Z,97306.59
2019-03-05T00:13:40.431Z,97307.69
2019-03-05T00:16:09.686Z,97325.64
2019-03-05T00:18:39.096Z,97327.07
2019-03-05T00:21:08.346Z,97348.32
2019-03-05T00:23:51.394Z,97337.44
2019-03-05T00:26:30.029Z,97358.11
2019-03-05T00:29:05.312Z,97355.20
2019-03-05T00:31:40.241Z,97357.10
2019-03-05T00:34:18.527Z,97364.45
2019-03-05T00:36:50.958Z,97373.92
2019-03-05T00:39:21.167Z,97379.22
2019-03-05T00:42:12.034Z,97379.16
2019-03-05T00:45:00.673Z,97389.97
2019-03-05T00:47:33.165Z,97393.98
2019-03-05T00:50:17.594Z,97402.12
2019-03-05T00:53:09.591Z,97405.44
2019-03-05T00:55:50.744Z,97412.69
2019-03-05T00:58:29.175Z,97410.11
2019-03-05T01:01:27.155Z,97406.30
2019-03-05T01:04:02.490Z,97412.03
2019-03-05T01:06:31.739Z,97411.16
2019-03-05T01:09:01.055Z,97415.70
2019-03-05T01:11:30.490Z,97425.77
2019-03-05T01:13:59.810Z,97427.72
2019-03-05T01:16:33.339Z,97433.77
2019-03-05T01:19:02.538Z,97438.73
2019-03-05T01:21:31.821Z,97442.07
2019-03-05T01:24:01.101Z,97446.45
2019-03-05T01:26:30.353Z,97458.62
2019-03-05T01:28:59.652Z,97454.89
2019-03-05T01:31:42.437Z,97457.41
2019-03-05T01:34:16.078Z,97465.20
2019-03-05T01:36:52.951Z,97466.84
2019-03-05T01:39:32.781Z,97478.93
2019-03-05T01:42:02.079Z,97476.22
2019-03-05T01:44:31.327Z,97473.28
2019-03-05T01:47:00.576Z,97486.92
2019-03-05T01:49:29.842Z,97494.59
2019-03-05T01:51:59.051Z,97508.95
2019-03-05T01:54:28.386Z,97511.78
2019-03-05T01:56:57.662Z,97525.03
2019-03-05T01:59:26.888Z,97535.70
2019-03-05T02:01:56.127Z,97538.36
2019-03-05T02:04:25.493Z,97539.02
2019-03-05T02:06:54.899Z,97544.54
2019-03-05T02:09:24.147Z,97552.56
2019-03-05T02:11:53.329Z,97539.81
2019-03-05T02:14:22.714Z,97550.73
2019-03-05T02:16:52.027Z,97545.05
2019-03-05T02:19:35.832Z,97545.66
2019-03-05T02:22:07.675Z,97553.25
2019-03-05T02:25:13.269Z,97562.60
2019-03-05T02:27:54.820Z,97566.48
2019-03-05T02:30:59.029Z,97561.89
2019-03-05T02:33:51.146Z,97562.97
2019-03-05T02:36:46.426Z,97563.04
2019-03-05T02:39:46.089Z,97566.33
2019-03-05T02:42:42.739Z,97573.22
2019-03-05T02:45:31.609Z,97582.60
2019-03-05T02:48:13.604Z,97578.47
2019-03-05T02:50:51.894Z,97570.80
2019-03-05T02:53:36.227Z,97573.86
2019-03-05T02:56:23.544Z,97577.50
2019-03-05T02:58:51.849Z,97583.59
2019-03-05T03:01:38.942Z,97579.05
2019-03-05T03:04:09.791Z,97591.00
2019-03-05T03:06:39.607Z,97585.39
2019-03-05T03:09:32.078Z,97593.99
2019-03-05T03:12:01.319Z,97596.06
2019-03-05T03:14:30.582Z,97593.34
2019-03-05T03:16:59.813Z,97582.14
2019-03-05T03:19:28.993Z,97598.60
2019-03-05T03:21:58.166Z,97598.64
2019-03-05T03:24:27.513Z,97586.28
2019-03-05T03:26:56.837Z,97596.95
2019-03-05T03:29:26.175Z,97613.70
2019-03-05T03:31:55.412Z,97600.61
2019-03-05T03:34:24.689Z,97609.34
2019-03-05T03:36:54.003Z,97618.34
2019-03-05T03:39:23.214Z,97622.67
2019-03-05T03:41:52.515Z,97614.22
2019-03-05T03:44:21.751Z,97632.23
2019-03-05T03:46:51.068Z,97615.97
2019-03-05T03:49:20.407Z,97618.55
2019-03-05T03:51:51.339Z,97620.98
2019-03-05T03:54:20.688Z,97615.70
2019-03-05T03:56:51.066Z,97619.83
2019-03-05T03:59:20.285Z,97625.49
2019-03-05T04:01:49.534Z,97624.97
2019-03-05T04:04:18.785Z,97624.55
2019-03-05T04:06:48.063Z,97632.95
2019-03-05T04:09:17.336Z,97627.28
2019-03-05T04:11:46.647Z,97639.95
2019-03-05T04:14:15.896Z,97637.46
2019-03-05T04:16:45.162Z,97637.35
2019-03-05T04:19:16.097Z,97644.23
2019-03-05T04:21:45.271Z,97645.32
2019-03-05T04:24:14.516Z,97646.18
2019-03-05T04:26:43.810Z,97652.52
2019-03-05T04:29:13.136Z,97647.34
2019-03-05T04:31:42.316Z,97641.14
2019-03-05T04:34:11.546Z,97634.20
2019-03-05T04:36:40.788Z,97655.08
2019-03-05T04:39:11.915Z,97647.67
2019-03-05T04:41:41.140Z,97657.99
2019-03-05T04:44:10.604Z,97650.55
2019-03-05T04:46:39.809Z,97648.32
2019-03-05T04:49:10.641Z,97653.52
2019-03-05T04:51:41.508Z,97653.95
2019-03-05T04:54:10.822Z,97652.68
2019-03-05T04:56:40.145Z,97667.49
2019-03-05T04:59:09.366Z,97657.44
2019-03-05T05:01:38.618Z,97654.28
2019-03-05T05:04:07.811Z,97663.48
2019-03-05T05:06:37.113Z,97659.19
2019-03-05T05:09:07.437Z,97664.32
2019-03-05T05:11:36.675Z,97669.59
2019-03-05T05:14:05.976Z,97669.32
2019-03-05T05:16:35.230Z,97676.35
2019-03-05T05:19:04.475Z,97684.74
2019-03-05T05:21:33.842Z,97697.83
2019-03-05T05:24:03.101Z,97677.63
2019-03-05T05:26:32.345Z,97688.61
2019-03-05T05:29:01.655Z,97687.04
2019-03-05T05:31:30.827Z,97704.95
2019-03-05T05:34:00.074Z,97695.83
2019-03-05T05:36:29.491Z,97701.17
2019-03-05T05:38:58.733Z,97709.73
2019-03-05T05:41:28.021Z,97722.94
2019-03-05T05:43:57.470Z,97712.60
2019-03-05T05:46:26.845Z,97720.33
2019-03-05T05:48:56.186Z,97732.17
2019-03-05T05:51:25.652Z,97725.75
2019-03-05T05:53:55.070Z,97745.54
2019-03-05T05:56:24.625Z,97738.08
2019-03-05T05:58:53.894Z,97745.23
2019-03-05T06:01:23.293Z,97747.11
2019-03-05T06:03:52.833Z,97753.22
2019-03-05T06:06:22.221Z,97753.17
2019-03-05T06:08:51.605Z,97744.13
2019-03-05T06:11:21.067Z,97762.34
2019-03-05T06:13:50.330Z,97752.06
2019-03-05T06:16:19.593Z,97771.42
2019-03-05T06:18:49.045Z,97769.59
2019-03-05T06:21:18.536Z,97758.65
2019-03-05T06:23:47.788Z,97749.23
2019-03-05T06:26:17.131Z,97755.00
2019-03-05T06:28:46.457Z,97771.84
2019-03-05T06:31:16.054Z,97774.05
2019-03-05T06:33:45.367Z,97767.54
2019-03-05T06:36:14.696Z,97771.42
2019-03-05T06:38:44.149Z,97772.70
2019-03-05T06:41:13.483Z,97760.34
2019-03-05T06:43:42.867Z,97767.78
2019-03-05T06:46:12.497Z,97755.43
2019-03-05T06:48:41.907Z,97762.83
2019-03-05T06:51:11.409Z,97753.34
2019-03-05T06:53:40.904Z,97756.97
2019-03-05T06:56:10.317Z,97756.05
2019-03-05T06:58:39.637Z,97753.65
2019-03-05T07:01:09.188Z,97745.93
2019-03-05T07:03:38.444Z,97757.05
2019-03-05T07:06:36.927Z,97759.62
2019-03-05T07:09:18.085Z,97751.71
2019-03-05T07:12:08.844Z,97758.08
2019-03-05T07:15:07.027Z,97768.30
2019-03-05T07:18:00.788Z,97768.80
2019-03-05T07:20:39.072Z,97768.13
2019-03-05T07:23:26.496Z,97767.00
2019-03-05T07:25:55.761Z,97759.32
2019-03-05T07:28:25.124Z,97765.94
2019-03-05T07:30:54.374Z,97773.20
2019-03-05T07:33:24.025Z,97778.48
2019-03-05T07:35:53.418Z,97774.44
2019-03-05T07:38:22.843Z,97777.57
2019-03-05T07:40:52.145Z,97782.06
2019-03-05T07:43:21.698Z,97787.03
2019-03-05T07:45:50.960Z,97777.68
2019-03-05T07:48:20.293Z,97780.12
2019-03-05T07:50:49.741Z,97785.02
2019-03-05T07:53:19.133Z,97791.22
2019-03-05T07:55:48.535Z,97786.25
2019-03-05T07:58:18.060Z,97792.33
2019-03-05T08:00:47.352Z,97789.20
2019-03-05T08:03:16.745Z,97769.37
2019-03-05T08:05:47.499Z,97790.24
2019-03-05T08:08:53.528Z,97788.06
2019-03-05T08:11:22.945Z,97791.59
2019-03-05T08:14:10.534Z,97799.94
2019-03-05T08:16:39.928Z,97791.18
2019-03-05T08:19:09.184Z,97802.57
2019-03-05T08:21:38.774Z,97803.42
2019-03-05T08:24:08.098Z,97794.03
2019-03-05T08:26:37.360Z,97806.07
2019-03-05T08:29:06.699Z,97818.20
2019-03-05T08:31:36.020Z,97819.23
2019-03-05T08:34:05.497Z,97819.22
2019-03-05T08:36:34.819Z,97806.69
2019-03-05T08:39:05.929Z,97816.49
2019-03-05T08:41:35.200Z,97819.45
2019-03-05T08:44:04.705Z,97818.97
2019-03-05T08:46:34.040Z,97837.95
2019-03-05T08:49:03.345Z,97826.73
2019-03-05T08:51:32.617Z,97825.08
2019-03-05T08:54:02.019Z,97815.24
2019-03-05T08:56:31.378Z,97837.52
2019-03-05T08:59:00.776Z,97815.20
2019-03-05T09:01:30.130Z,97814.13
2019-03-05T09:03:59.522Z,97812.05
2019-03-05T09:06:29.062Z,97823.42
2019-03-05T09:08:58.334Z,97831.36
2019-03-05T09:11:27.863Z,97827.59
2019-03-05T09:13:57.190Z,97832.92
2019-03-05T09:16:26.528Z,97821.67
2019-03-05T09:18:55.885Z,97836.86
2019-03-05T09:21:25.331Z,97844.81
2019-03-05T09:23:54.739Z,97846.41
2019-03-05T09:26:24.137Z,97836.27
2019-03-05T09:28:54.825Z,97838.52
2019-03-05T09:31:24.096Z,97840.19
2019-03-05T09:33:53.627Z,97841.39
2019-03-05T09:36:22.897Z,97843.37
2019-03-05T09:38:52.207Z,97851.10
2019-03-05T09:41:21.695Z,97840.14
2019-03-05T09:43:50.974Z,97839.20
2019-03-05T09:46:20.375Z,97840.50
2019-03-05T09:48:49.814Z,97841.48
2019-03-05T09:51:19.219Z,97848.77
2019-03-05T09:53:48.532Z,97847.37
2019-03-05T09:56:17.979Z,97837.95
2019-03-05T09:58:47.524Z,97840.20
2019-03-05T10:01:16.783Z,97837.11
2019-03-05T10:03:46.177Z,97838.55
2019-03-05T10:06:15.610Z,97841.86
2019-03-05T10:08:44.999Z,97828.52
2019-03-05T10:11:14.319Z,97827.05
2019-03-05T10:13:43.730Z,97852.42
2019-03-05T10:16:13.168Z,97840.28
2019-03-05T10:18:42.587Z,97844.08
2019-03-05T10:21:12.157Z,97840.75
2019-03-05T10:23:41.466Z,97844.81
2019-03-05T10:26:10.799Z,97838.85
2019-03-05T10:28:40.534Z,97845.14
2019-03-05T10:31:09.872Z,97847.09
2019-03-05T10:33:39.198Z,97847.23
2019-03-05T10:36:09.166Z,97854.72
2019-03-05T10:38:38.430Z,97862.33
2019-03-05T10:41:07.893Z,97861.33
2019-03-05T10:43:37.143Z,97856.16
2019-03-05T10:46:06.469Z,97868.35
2019-03-05T10:48:35.916Z,97864.30
2019-03-05T10:51:05.444Z,97868.09
2019-03-05T10:53:34.765Z,97860.79
2019-03-05T10:56:04.144Z,97872.67
2019-03-05T10:58:34.474Z,97867.25
2019-03-05T11:01:05.570Z,97878.34
2019-03-05T11:03:34.983Z,97876.83
2019-03-05T11:06:06.046Z,97885.67
2019-03-05T11:08:35.384Z,97880.13
2019-03-05T11:11:13.023Z,97894.72
2019-03-05T11:13:35.871Z,97893.14
2019-03-05T11:16:06.197Z,97887.27
2019-03-05T11:18:35.595Z,97897.15
2019-03-05T11:21:05.496Z,97895.30
2019-03-05T11:23:34.932Z,97898.16
2019-03-05T11:26:04.611Z,97893.62
2019-03-05T11:28:34.011Z,97899.74
2019-03-05T11:31:03.402Z,97904.52
2019-03-05T11:33:32.809Z,97904.02
2019-03-05T11:36:02.209Z,97905.64
2019-03-05T11:38:31.456Z,97912.83
2019-03-05T11:41:00.916Z,97902.82
2019-03-05T11:43:30.318Z,97912.09
2019-03-05T11:45:59.570Z,97914.23
2019-03-05T11:48:28.995Z,97899.84
2019-03-05T11:50:58.552Z,97924.05
2019-03-05T11:53:27.845Z,97933.01
2019-03-05T11:55:57.239Z,97922.47
2019-03-05T11:58:26.609Z,97919.95
2019-03-05T12:01:00.278Z,97927.19
2019-03-05T12:03:29.621Z,97928.02
2019-03-05T15:54:21.893Z,98079.38
2019-03-05T15:56:51.140Z,98075.84
2019-03-05T15:59:20.499Z,98077.52
2019-03-05T16:01:49.911Z,98078.38
2019-03-05T16:04:19.257Z,98081.41
2019-03-05T16:06:49.780Z,98088.79
2019-03-05T16:09:19.184Z,98089.89
2019-03-05T16:11:48.394Z,98092.98
2019-03-05T16:14:17.657Z,98109.87
2019-03-05T16:16:47.099Z,98102.11
2019-03-05T16:19:17.738Z,98104.81
2019-03-05T16:21:47.281Z,98114.26
2019-03-05T16:24:16.492Z,98114.16
2019-03-05T16:26:45.820Z,98108.02
2019-03-05T16:29:16.329Z,98113.73
2019-03-05T16:31:49.807Z,98115.00
2019-03-05T16:34:35.726Z,98124.71
2019-03-05T16:37:07.131Z,98124.00
2019-03-05T16:39:38.122Z,98120.47
2019-03-05T16:42:18.249Z,98125.98
2019-03-05T16:44:52.536Z,98121.18
2019-03-05T16:47:39.903Z,98134.07
2019-03-05T16:50:27.612Z,98134.60
2019-03-05T16:53:14.848Z,98139.03
2019-03-05T16:55:45.813Z,98145.95
2019-03-05T16:58:22.813Z,98155.89
2019-03-05T17:00:59.497Z,98165.57
2019-03-05T17:03:32.834Z,98174.06
2019-03-05T17:06:06.215Z,98169.82
2019-03-05T17:08:37.158Z,98185.66
2019-03-05T17:11:14.804Z,98197.04
2019-03-05T17:13:44.042Z,98213.26
2019-03-05T17:16:13.226Z,98242.81
2019-03-05T17:18:42.463Z,98235.17
2019-03-05T17:21:11.695Z,98236.55
2019-03-05T17:23:40.870Z,98213.75
2019-03-05T17:26:10.128Z,98221.81
2019-03-05T17:28:39.332Z,98216.23
2019-03-05T17:31:08.574Z,98219.48
2019-03-05T17:33:38.218Z,98226.89
2019-03-05T17:36:07.401Z,98219.27
2019-03-05T17:38:36.651Z,98238.51
2019-03-05T17:41:06.021Z,98247.48
2019-03-05T17:43:35.204Z,98246.96
2019-03-05T17:46:04.459Z,98263.03
2019-03-05T17:48:33.661Z,98257.80
2019-03-05T17:51:02.907Z,98251.36
2019-03-05T17:53:32.912Z,98266.03
2019-03-05T17:56:02.157Z,98265.30
2019-03-05T17:58:31.406Z,98267.28
2019-03-05T18:01:00.671Z,98269.47
2019-03-05T18:03:30.016Z,98275.20
2019-03-05T18:05:59.383Z,98281.58
2019-03-05T18:08:28.665Z,98286.06
2019-03-05T18:10:57.898Z,98290.03
2019-03-05T18:13:27.113Z,98298.79
2019-03-05T18:15:56.337Z,98294.92
2019-03-05T18:18:25.514Z,98295.03
2019-03-05T18:20:54.765Z,98298.58
2019-03-05T18:23:24.031Z,98304.13
2019-03-05T18:25:53.337Z,98296.94
2019-03-05T18:28:22.509Z,98314.22
2019-03-05T18:30:51.762Z,98318.85
2019-03-05T18:33:21.030Z,98316.09
2019-03-05T18:35:50.606Z,98320.58
2019-03-05T18:38:19.848Z,98315.66
2019-03-05T18:40:49.477Z,98317.17
2019-03-05T18:43:18.756Z,98320.53
2019-03-05T18:45:47.961Z,98319.92
2019-03-05T18:48:18.096Z,98317.84
2019-03-05T18:50:47.276Z,98335.45
2019-03-05T18:53:16.643Z,98327.81
2019-03-05T18:55:45.987Z,98327.33
2019-03-05T18:58:15.186Z,98329.26
2019-03-05T19:00:44.453Z,98340.70
2019-03-05T19:03:18.244Z,98340.86
2019-03-05T19:05:47.902Z,98353.36
2019-03-05T19:08:17.082Z,98357.42
2019-03-05T19:10:46.413Z,98361.50
2019-03-05T19:13:15.734Z,98360.38
2019-03-05T19:15:45.285Z,98363.50
2019-03-05T19:18:14.552Z,98368.57
2019-03-05T19:20:43.799Z,98368.89
2019-03-05T19:23:13.099Z,98364.37
2019-03-05T19:25:44.653Z,98361.77
2019-03-05T19:28:14.061Z,98363.75
2019-03-05T19:30:49.086Z,98361.09
2019-03-05T19:33:18.355Z,98368.27
2019-03-05T19:35:47.676Z,98369.80
2019-03-05T19:38:17.018Z,98366.20
2019-03-05T19:40:47.596Z,98359.41
2019-03-05T19:43:16.848Z,98366.03
2019-03-05T19:45:46.091Z,98366.40
2019-03-05T19:48:15.296Z,98356.33
2019-03-05T19:50:44.729Z,98361.47
2019-03-05T19:53:14.039Z,98366.84
2019-03-05T19:55:43.359Z,98363.95
2019-03-05T19:58:14.184Z,98366.84
2019-03-05T20:00:53.287Z,98376.52
2019-03-05T20:03:22.538Z,98373.09
2019-03-05T20:05:51.812Z,98371.88
2019-03-05T20:08:21.153Z,98376.73
2019-03-05T20:10:50.430Z,98381.41
2019-03-05T20:13:19.705Z,98394.28
2019-03-05T20:15:49.041Z,98399.04
2019-03-05T20:18:18.492Z,98396.05
2019-03-05T20:20:47.765Z,98396.45
2019-03-05T20:23:17.179Z,98406.06
2019-03-05T20:25:46.551Z,98399.04
2019-03-05T20:28:15.723Z,98405.91
2019-03-05T20:30:45.099Z,98407.16
2019-03-05T20:33:14.399Z,98403.05
2019-03-05T20:35:44.264Z,98415.84
2019-03-05T20:38:13.555Z,98407.69
2019-03-05T20:40:42.854Z,98414.20
2019-03-05T20:43:12.176Z,98414.36
2019-03-05T20:45:44.798Z,98424.13
2019-03-05T20:48:14.656Z,98421.88
2019-03-05T20:50:43.909Z,98424.59
2019-03-05T20:53:13.199Z,98435.47
2019-03-05T20:55:42.433Z,98429.76
2019-03-05T20:58:11.729Z,98432.23
2019-03-05T21:00:41.249Z,98439.55
2019-03-05T21:03:11.660Z,98435.92
2019-03-05T21:05:44.166Z,98444.04
2019-03-05T21:08:13.400Z,98440.59
2019-03-05T21:10:42.722Z,98447.32
2019-03-05T21:13:12.326Z,98449.27
2019-03-05T21:15:41.595Z,98443.95
2019-03-05T21:18:13.742Z,98449.47
2019-03-05T21:20:43.005Z,98452.34
2019-03-05T21:23:12.249Z,98454.80
2019-03-05T21:25:41.466Z,98456.52
2019-03-05T21:28:10.720Z,98468.16
2019-03-05T21:30:39.896Z,98476.19
2019-03-05T21:33:09.114Z,98480.74
2019-03-05T21:35:39.300Z,98483.27
2019-03-05T21:38:08.546Z,98483.71
2019-03-05T21:40:37.727Z,98486.18
2019-03-05T21:43:06.969Z,98470.09
2019-03-05T21:45:51.978Z,98488.44
2019-03-05T21:48:21.274Z,98493.09
2019-03-05T21:50:50.522Z,98502.23
2019-03-05T21:53:19.769Z,98487.43
2019-03-05T21:55:48.965Z,98503.38
2019-03-05T21:58:18.160Z,98501.41
2019-03-05T22:00:47.354Z,98499.23
2019-03-05T22:03:16.736Z,98505.30
2019-03-05T22:05:45.921Z,98511.70
2019-03-05T22:08:15.112Z,98511.56
2019-03-05T22:10:44.314Z,98520.94
2019-03-05T22:13:13.509Z,98514.93
2019-03-05T22:15:42.751Z,98515.30
2019-03-05T22:18:11.997Z,98517.38
2019-03-05T22:20:41.323Z,98524.09
2019-03-05T22:23:10.654Z,98532.44
2019-03-05T22:25:39.864Z,98529.52
2019-03-05T22:28:09.326Z,98526.20
2019-03-05T22:30:39.230Z,98526.16
2019-03-05T22:33:08.670Z,98536.95
2019-03-05T22:35:38.635Z,98539.73
2019-03-05T22:38:07.883Z,98535.16
2019-03-05T22:40:37.197Z,98530.45
2019-03-05T22:43:06.447Z,98532.07
2019-03-05T22:45:35.863Z,98539.25
2019-03-05T22:48:05.110Z,98542.25
2019-03-05T22:50:34.451Z,98549.38
2019-03-05T22:53:03.694Z,98556.67
2019-03-05T22:55:32.967Z,98557.80
2019-03-05T22:58:02.384Z,98560.92
2019-03-05T23:00:54.513Z,98553.53
2019-03-05T23:03:29.089Z,98557.48
2019-03-05T23:05:58.626Z,98556.98
2019-03-05T23:08:27.868Z,98559.56
2019-03-05T23:10:57.139Z,98561.44
2019-03-05T23:13:26.752Z,98573.66
2019-03-05T23:15:56.045Z,98571.32
2019-03-05T23:18:25.274Z,98564.99
2019-03-05T23:20:54.459Z,98576.12
2019-03-05T23:23:23.739Z,98572.60
2019-03-05T23:25:53.040Z,98582.87
2019-03-05T23:28:22.395Z,98579.15
2019-03-05T23:30:51.719Z,98576.91
2019-03-05T23:33:20.921Z,98577.42
2019-03-05T23:35:50.200Z,98584.73
2019-03-05T23:38:19.503Z,98579.77
2019-03-05T23:40:48.940Z,98588.09
2019-03-05T23:43:18.257Z,98599.27
2019-03-05T23:45:47.543Z,98590.47
2019-03-05T23:48:16.720Z,98607.75
2019-03-05T23:50:46.045Z,98609.83
2019-03-05T23:53:15.592Z,98622.22
2019-03-05T23:55:44.968Z,98625.46
2019-03-05T23:58:14.149Z,98619.42
